Time;durP1;ratioP1;P1;durP2;ratioP2;P2;SDS_P1;SDS_P2;PMS_P1;PMS_P2;Temp;Humidity;BMP_temperature;BMP_pressure;BME280_temperature;BME280_humidity;BME280_pressure;Samples;Min_cycle;Max_cycle;Signal;HPM_P1;HPM_P2
2022/06/10 00:00:17;;;;;;;5.40;2.78;;;15.60;99.90;;;;;;2096723;28;20052;-70
2022/06/10 00:01:18;;;;;;;8.40;3.10;;;15.60;99.90;;;;;;2098827;28;20056;-70
2022/06/10 00:02:19;;;;;;;8.38;4.03;;;15.60;99.90;;;;;;2109873;27;20039;-70
2022/06/10 00:03:24;;;;;;;8.00;3.30;;;15.60;99.90;;;;;;2113432;28;20106;-70
2022/06/10 00:04:25;;;;;;;3.95;3.25;;;15.60;99.90;;;;;;2095410;28;20058;-70
2022/06/10 00:05:28;;;;;;;4.57;2.85;;;15.60;99.90;;;;;;2093670;28;20025;-70
2022/06/10 00:06:29;;;;;;;6.82;3.50;;;15.50;99.90;;;;;;2096401;28;20025;-70
2022/06/10 00:07:34;;;;;;;7.43;3.55;;;15.50;99.90;;;;;;2097384;28;20040;-70
2022/06/10 00:08:38;;;;;;;4.38;3.03;;;15.50;99.90;;;;;;2094734;28;20483;-70
2022/06/10 00:09:38;;;;;;;4.32;3.05;;;15.50;99.90;;;;;;2096344;28;20048;-70
2022/06/10 00:10:40;;;;;;;4.07;2.90;;;15.50;99.90;;;;;;2096487;28;20036;-70
2022/06/10 00:11:41;;;;;;;6.57;3.40;;;15.50;99.90;;;;;;2091053;28;20061;-70
2022/06/10 00:12:41;;;;;;;5.22;3.20;;;15.50;99.90;;;;;;2096479;28;20020;-70
2022/06/10 00:13:45;;;;;;;6.88;3.20;;;15.50;99.90;;;;;;2096138;28;20013;-70
2022/06/10 00:14:45;;;;;;;4.70;3.47;;;15.50;99.90;;;;;;2098028;28;20027;-70
2022/06/10 00:15:47;;;;;;;7.28;3.00;;;15.50;99.90;;;;;;2099031;28;20031;-70
2022/06/10 00:16:48;;;;;;;5.97;3.10;;;15.50;99.90;;;;;;2097000;28;20031;-70
2022/06/10 00:17:49;;;;;;;6.30;3.53;;;15.50;99.90;;;;;;2095723;28;20028;-70
2022/06/10 00:18:50;;;;;;;6.43;3.50;;;15.50;99.90;;;;;;2094718;28;20111;-70
2022/06/10 00:19:50;;;;;;;7.55;3.03;;;15.50;99.90;;;;;;2095193;28;20475;-70
2022/06/10 00:20:51;;;;;;;9.27;3.53;;;15.50;99.90;;;;;;2095953;28;20021;-70
2022/06/10 00:21:52;;;;;;;5.55;3.60;;;15.50;99.90;;;;;;2099663;28;20025;-70
2022/06/10 00:22:52;;;;;;;6.75;3.40;;;15.50;99.90;;;;;;2094388;28;20024;-70
2022/06/10 00:23:53;;;;;;;5.53;3.13;;;15.50;99.90;;;;;;2092976;28;20565;-70
2022/06/10 00:24:54;;;;;;;5.80;3.70;;;15.50;99.90;;;;;;2096547;28;20035;-70
2022/06/10 00:25:54;;;;;;;6.38;3.28;;;15.50;99.90;;;;;;2093574;28;20472;-70
2022/06/10 00:26:55;;;;;;;5.63;3.25;;;15.50;99.90;;;;;;2095554;28;20020;-70
2022/06/10 00:27:55;;;;;;;4.93;2.85;;;15.50;99.90;;;;;;2095821;28;20020;-70
2022/06/10 00:28:59;;;;;;;6.15;3.20;;;15.50;99.90;;;;;;2096510;28;20025;-70
2022/06/10 00:30:00;;;;;;;5.03;3.33;;;15.50;99.90;;;;;;2096496;28;20439;-70
2022/06/10 00:31:01;;;;;;;7.10;3.63;;;15.40;99.90;;;;;;2094941;28;20025;-70
2022/06/10 00:32:02;;;;;;;5.00;3.13;;;15.40;99.90;;;;;;2097556;28;20492;-70
2022/06/10 00:33:04;;;;;;;10.18;3.72;;;15.50;99.90;;;;;;2095522;28;20404;-70
2022/06/10 00:34:04;;;;;;;7.60;3.65;;;15.40;99.90;;;;;;2095881;28;20021;-70
2022/06/10 00:35:06;;;;;;;7.53;3.85;;;15.50;99.90;;;;;;2096700;28;20027;-70
2022/06/10 00:36:08;;;;;;;7.25;3.55;;;15.50;99.90;;;;;;2092963;28;20079;-70
2022/06/10 00:37:10;;;;;;;4.93;3.47;;;15.50;99.90;;;;;;2096387;28;20049;-70
2022/06/10 00:38:11;;;;;;;5.13;3.40;;;15.40;99.90;;;;;;2097841;28;20099;-70
2022/06/10 00:39:11;;;;;;;10.60;3.58;;;15.40;99.90;;;;;;2095205;28;20016;-70
2022/06/10 00:40:22;;;;;;;8.90;4.30;;;15.40;99.90;;;;;;2097957;28;20096;-70
2022/06/10 00:41:23;;;;;;;7.45;3.97;;;15.40;99.90;;;;;;2095333;28;20046;-70
2022/06/10 00:42:23;;;;;;;6.78;3.60;;;15.40;99.90;;;;;;2095911;28;20029;-70
2022/06/10 00:43:30;;;;;;;6.95;3.75;;;15.40;99.90;;;;;;2096097;28;20028;-70
2022/06/10 00:44:33;;;;;;;7.88;4.10;;;15.40;99.90;;;;;;2093033;28;20021;-70
2022/06/10 00:46:09;;;;;;;8.05;3.92;;;15.40;99.90;;;;;;2094696;28;20121;-70
2022/06/10 00:47:33;;;;;;;5.45;3.65;;;15.40;99.90;;;;;;2096072;28;20404;-70
2022/06/10 00:48:53;;;;;;;7.88;3.25;;;15.40;99.90;;;;;;2096678;28;20047;-70
2022/06/10 00:49:58;;;;;;;7.90;3.58;;;15.30;99.90;;;;;;2095363;28;20032;-70
2022/06/10 00:51:09;;;;;;;5.28;3.75;;;15.30;99.90;;;;;;2095650;28;20064;-70
2022/06/10 00:52:26;;;;;;;5.72;3.83;;;15.30;99.90;;;;;;2096068;28;20553;-70
2022/06/10 00:53:33;;;;;;;6.72;3.90;;;15.30;99.90;;;;;;2096286;28;20051;-70
2022/06/10 00:54:41;;;;;;;7.22;4.10;;;15.30;99.90;;;;;;2095198;28;20033;-70
2022/06/10 00:55:45;;;;;;;8.27;4.00;;;15.30;99.90;;;;;;2094192;28;20021;-70
2022/06/10 00:56:57;;;;;;;5.82;4.07;;;15.30;99.90;;;;;;2096874;28;20396;-70
2022/06/10 00:58:31;;;;;;;6.13;3.55;;;15.30;99.90;;;;;;2097031;28;20028;-70
2022/06/10 00:59:59;;;;;;;5.28;3.20;;;15.30;99.90;;;;;;2095982;28;20074;-70
2022/06/10 01:01:02;;;;;;;7.28;3.97;;;15.30;99.90;;;;;;2090342;28;20047;-70
2022/06/10 01:02:10;;;;;;;4.85;3.75;;;15.20;99.90;;;;;;2096052;28;20032;-70
2022/06/10 01:03:11;;;;;;;9.55;4.70;;;15.20;99.90;;;;;;2094757;28;20880;-70
2022/06/10 01:04:12;;;;;;;8.20;3.55;;;15.20;99.90;;;;;;2093424;28;20079;-70
2022/06/10 01:05:17;;;;;;;8.48;3.45;;;15.20;99.90;;;;;;2094349;28;20104;-70
2022/06/10 01:06:17;;;;;;;6.57;3.53;;;15.20;99.90;;;;;;2096052;28;20029;-70
2022/06/10 01:07:32;;;;;;;6.60;4.15;;;15.20;99.90;;;;;;2094589;28;20030;-70
2022/06/10 01:08:32;;;;;;;8.50;3.80;;;15.20;99.90;;;;;;2093647;28;20020;-70
2022/06/10 01:09:34;;;;;;;5.15;3.38;;;15.20;99.90;;;;;;2111197;28;20073;-70
2022/06/10 01:11:00;;;;;;;6.82;3.60;;;15.20;99.90;;;;;;2112432;28;20066;-70
2022/06/10 01:12:06;;;;;;;5.88;4.00;;;15.20;99.90;;;;;;2095639;28;20054;-70
2022/06/10 01:13:22;;;;;;;6.95;3.60;;;15.20;99.90;;;;;;2097409;28;20052;-70
2022/06/10 01:15:04;;;;;;;7.13;3.83;;;15.20;99.90;;;;;;2098795;28;20023;-70
2022/06/10 01:16:37;;;;;;;7.43;3.80;;;15.10;99.90;;;;;;2095314;28;20029;-70
2022/06/10 01:17:37;;;;;;;3.50;3.20;;;15.10;99.90;;;;;;2097833;28;20032;-70
2022/06/10 01:19:10;;;;;;;5.32;4.00;;;15.10;99.90;;;;;;2096273;28;20096;-70
2022/06/10 01:20:27;;;;;;;8.00;3.75;;;15.10;99.90;;;;;;2092816;28;20033;-70
2022/06/10 01:21:57;;;;;;;8.32;4.25;;;15.00;99.90;;;;;;2097154;28;20039;-70
2022/06/10 01:23:21;;;;;;;6.63;3.63;;;15.00;99.90;;;;;;2094373;28;20017;-70
2022/06/10 01:24:24;;;;;;;9.82;4.10;;;15.00;99.90;;;;;;2094689;28;20055;-70
2022/06/10 01:25:37;;;;;;;8.25;4.30;;;15.00;99.90;;;;;;2098117;28;20077;-70
2022/06/10 01:28:27;;;;;;;5.68;3.42;;;15.00;99.90;;;;;;2095037;28;20100;-70
2022/06/10 01:29:45;;;;;;;6.20;4.10;;;15.00;99.90;;;;;;2097480;28;20032;-70
2022/06/10 01:31:08;;;;;;;4.75;3.90;;;15.00;99.90;;;;;;2097574;28;20036;-70
2022/06/10 01:32:16;;;;;;;8.00;4.30;;;15.00;99.90;;;;;;2097649;28;20109;-70
2022/06/10 01:33:25;;;;;;;5.38;3.85;;;14.90;99.90;;;;;;2094616;28;20025;-70
2022/06/10 01:34:38;;;;;;;6.13;4.43;;;14.90;99.90;;;;;;2097380;28;20008;-70
2022/06/10 01:36:04;;;;;;;6.65;3.88;;;14.90;99.90;;;;;;2095930;28;20024;-70
2022/06/10 01:37:25;;;;;;;6.90;4.32;;;14.90;99.90;;;;;;2097908;28;20531;-70
2022/06/10 01:38:48;;;;;;;6.82;4.18;;;14.90;99.90;;;;;;2098703;28;20029;-70
2022/06/10 01:40:04;;;;;;;4.13;3.28;;;14.90;99.90;;;;;;2095869;28;20017;-70
2022/06/10 01:41:07;;;;;;;6.63;4.13;;;14.90;99.90;;;;;;2096878;28;20563;-70
2022/06/10 01:42:11;;;;;;;6.85;4.30;;;14.90;99.90;;;;;;2096219;28;20055;-70
2022/06/10 01:43:37;;;;;;;4.78;3.60;;;14.90;99.90;;;;;;2099421;28;20479;-70
2022/06/10 01:44:50;;;;;;;4.70;3.58;;;14.90;99.90;;;;;;2097326;28;20021;-70
2022/06/10 01:46:16;;;;;;;6.68;4.10;;;14.90;99.90;;;;;;2093287;28;20052;-70
2022/06/10 01:47:33;;;;;;;7.20;4.18;;;14.80;99.90;;;;;;2095581;28;20040;-70
2022/06/10 01:48:48;;;;;;;7.00;4.35;;;14.90;99.90;;;;;;2097200;28;20063;-70
2022/06/10 01:49:56;;;;;;;3.97;3.13;;;14.80;99.90;;;;;;2099179;28;20028;-70
2022/06/10 01:51:10;;;;;;;8.82;4.72;;;14.80;99.90;;;;;;2096906;28;20020;-70
2022/06/10 01:52:33;;;;;;;7.28;4.40;;;14.80;99.90;;;;;;2095822;28;20044;-70
2022/06/10 01:54:05;;;;;;;6.97;3.35;;;14.80;99.90;;;;;;2095938;28;20039;-70
2022/06/10 01:55:20;;;;;;;7.88;4.22;;;14.80;99.90;;;;;;2095994;28;20071;-70
2022/06/10 01:56:30;;;;;;;8.73;4.72;;;14.80;99.90;;;;;;2096584;28;20031;-70
2022/06/10 01:57:39;;;;;;;9.25;4.57;;;14.80;99.90;;;;;;2094301;28;20400;-70
2022/06/10 01:58:54;;;;;;;7.38;4.22;;;14.80;99.90;;;;;;2093329;28;20025;-70
2022/06/10 02:00:06;;;;;;;6.55;4.00;;;14.80;99.90;;;;;;2097485;28;20023;-70
2022/06/10 02:01:27;;;;;;;4.15;3.30;;;14.80;99.90;;;;;;2096261;28;20017;-70
2022/06/10 02:02:33;;;;;;;6.05;4.03;;;14.80;99.90;;;;;;2094343;28;20135;-70
2022/06/10 02:04:00;;;;;;;6.80;3.75;;;14.80;99.90;;;;;;2096766;28;20021;-70
2022/06/10 02:05:21;;;;;;;9.57;4.28;;;14.80;99.90;;;;;;2096954;28;20036;-70
2022/06/10 02:06:25;;;;;;;8.68;5.13;;;14.80;99.90;;;;;;2098235;28;20016;-70
2022/06/10 02:07:42;;;;;;;7.65;4.45;;;14.70;99.90;;;;;;2100016;28;20107;-70
2022/06/10 02:08:57;;;;;;;5.80;4.00;;;14.70;99.90;;;;;;2098385;28;20512;-70
2022/06/10 02:10:13;;;;;;;6.57;3.80;;;14.70;99.90;;;;;;2097729;28;20031;-70
2022/06/10 02:11:16;;;;;;;6.45;4.00;;;14.70;99.90;;;;;;2094971;28;20020;-70
2022/06/10 02:12:27;;;;;;;5.72;3.97;;;14.70;99.90;;;;;;2094942;28;20503;-70
2022/06/10 02:13:44;;;;;;;8.18;4.70;;;14.70;99.90;;;;;;2098427;28;20115;-70
2022/06/10 02:15:07;;;;;;;8.15;4.93;;;14.80;99.90;;;;;;2098926;28;20036;-70
2022/06/10 02:16:14;;;;;;;7.05;4.72;;;14.80;99.90;;;;;;2096432;28;20013;-70
2022/06/10 02:17:16;;;;;;;7.50;4.90;;;14.70;99.90;;;;;;2094944;28;20040;-70
2022/06/10 02:18:37;;;;;;;6.60;4.53;;;14.70;99.90;;;;;;2096244;28;20020;-70
2022/06/10 02:19:50;;;;;;;7.63;4.32;;;14.80;99.90;;;;;;2094684;28;20103;-70
2022/06/10 02:20:56;;;;;;;9.60;4.82;;;14.70;99.90;;;;;;2098109;28;20112;-70
2022/06/10 02:22:13;;;;;;;5.88;4.40;;;14.70;99.90;;;;;;2093279;28;20023;-70
2022/06/10 02:23:19;;;;;;;8.15;5.15;;;14.70;99.90;;;;;;2097539;28;20028;-70
2022/06/10 02:24:31;;;;;;;4.93;4.20;;;14.70;99.90;;;;;;2096184;28;20038;-70
2022/06/10 02:25:42;;;;;;;6.70;4.22;;;14.70;99.90;;;;;;2092657;28;20480;-70
2022/06/10 02:26:45;;;;;;;10.80;4.97;;;14.70;99.90;;;;;;2097416;28;20028;-70
2022/06/10 02:27:50;;;;;;;7.90;4.47;;;14.70;99.90;;;;;;2097202;28;20024;-70
2022/06/10 02:28:53;;;;;;;7.43;4.40;;;14.70;99.90;;;;;;2099549;28;20093;-70
2022/06/10 02:30:04;;;;;;;6.80;4.45;;;14.70;99.90;;;;;;2094445;28;20094;-70
2022/06/10 02:31:11;;;;;;;6.30;4.43;;;14.70;99.90;;;;;;2097703;28;20035;-70
2022/06/10 02:32:12;;;;;;;8.07;4.43;;;14.70;99.90;;;;;;2098010;28;20021;-70
2022/06/10 02:33:12;;;;;;;6.47;4.30;;;14.70;99.90;;;;;;2095119;28;20048;-70
2022/06/10 02:34:14;;;;;;;4.38;3.90;;;14.70;99.90;;;;;;2096994;28;20016;-70
2022/06/10 02:35:16;;;;;;;5.13;3.90;;;14.70;99.90;;;;;;2097039;28;20024;-70
2022/06/10 02:36:29;;;;;;;4.95;4.13;;;14.70;99.90;;;;;;2096240;28;20060;-70
2022/06/10 02:37:46;;;;;;;7.97;4.65;;;14.70;99.90;;;;;;2094808;28;20029;-70
2022/06/10 02:39:12;;;;;;;7.38;3.97;;;14.70;99.90;;;;;;2097079;28;20051;-70
2022/06/10 02:40:27;;;;;;;6.03;4.05;;;14.60;99.90;;;;;;2095797;28;20055;-70
2022/06/10 02:41:34;;;;;;;7.35;4.75;;;14.60;99.90;;;;;;2097075;28;20166;-70
2022/06/10 02:42:58;;;;;;;6.60;4.18;;;14.60;99.90;;;;;;2094472;28;20028;-70
2022/06/10 02:44:06;;;;;;;9.05;4.75;;;14.60;99.90;;;;;;2094841;28;20032;-70
2022/06/10 02:45:26;;;;;;;7.43;4.43;;;14.60;99.90;;;;;;2101723;28;20048;-70
2022/06/10 02:46:40;;;;;;;6.57;4.22;;;14.60;99.90;;;;;;2097605;28;20083;-70
2022/06/10 02:48:12;;;;;;;6.45;4.05;;;14.60;99.90;;;;;;2095415;28;20386;-70
2022/06/10 02:49:18;;;;;;;4.97;4.03;;;14.60;99.90;;;;;;2094555;28;20032;-70
2022/06/10 02:50:19;;;;;;;7.45;4.63;;;14.60;99.90;;;;;;2096817;28;20492;-70
2022/06/10 02:51:21;;;;;;;6.90;4.35;;;14.50;99.90;;;;;;2096130;28;20111;-70
2022/06/10 02:52:25;;;;;;;7.32;4.95;;;14.60;99.90;;;;;;2096615;28;20362;-70
2022/06/10 02:53:26;;;;;;;5.32;4.80;;;14.60;99.90;;;;;;2098538;28;20033;-70
2022/06/10 02:54:35;;;;;;;4.55;3.60;;;14.60;99.90;;;;;;2097076;28;20051;-70
2022/06/10 02:55:38;;;;;;;6.15;4.05;;;14.60;99.90;;;;;;2095208;28;20028;-71
2022/06/10 02:56:39;;;;;;;5.85;4.30;;;14.50;99.90;;;;;;2098220;28;20108;-71
2022/06/10 03:02:12;;;;;;;6.97;4.38;;;14.50;99.90;;;;;;2095113;28;20024;-70
2022/06/10 03:03:33;;;;;;;5.55;4.18;;;14.50;99.90;;;;;;2079419;28;20029;-70
2022/06/10 03:04:59;;;;;;;7.63;4.43;;;14.50;99.90;;;;;;2095566;28;20032;-70
2022/06/10 03:06:22;;;;;;;7.30;4.97;;;14.40;99.90;;;;;;2095731;28;20042;-70
2022/06/10 03:07:43;;;;;;;5.40;4.60;;;14.40;99.90;;;;;;2086788;28;20037;-70
2022/06/10 03:09:23;;;;;;;5.00;3.90;;;14.40;99.90;;;;;;2095518;28;20131;-70
2022/06/10 03:10:32;;;;;;;7.68;4.47;;;14.40;99.90;;;;;;2085762;28;20124;-70
2022/06/10 03:11:37;;;;;;;6.53;4.28;;;14.30;99.90;;;;;;2104696;28;20418;-70
2022/06/10 03:12:59;;;;;;;9.75;5.60;;;14.30;99.90;;;;;;2104877;28;20050;-70
2022/06/10 03:14:11;;;;;;;5.32;4.20;;;14.30;99.90;;;;;;2095160;28;20022;-70
2022/06/10 03:15:22;;;;;;;4.45;3.40;;;14.30;99.90;;;;;;2096189;28;20024;-70
2022/06/10 03:16:56;;;;;;;5.35;4.10;;;14.30;99.90;;;;;;2094972;28;20680;-70
2022/06/10 03:18:34;;;;;;;6.03;4.20;;;14.30;99.90;;;;;;2075936;28;20030;-70
2022/06/10 03:19:50;;;;;;;7.00;4.88;;;14.30;99.90;;;;;;2092962;28;20063;-70
2022/06/10 03:21:27;;;;;;;4.35;3.47;;;14.30;99.90;;;;;;2096457;28;20099;-70
2022/06/10 03:22:38;;;;;;;6.80;4.20;;;14.30;99.90;;;;;;2095984;28;20120;-70
2022/06/10 03:23:50;;;;;;;;;;;14.20;99.90;;;;;;2097586;28;20052;-70
2022/06/10 03:24:54;;;;;;;7.32;4.47;;;14.20;99.90;;;;;;2096629;28;19908;-70
2022/06/10 03:26:09;;;;;;;8.13;5.20;;;14.20;99.90;;;;;;2097574;28;20103;-70
2022/06/10 03:27:37;;;;;;;7.50;5.53;;;14.20;99.90;;;;;;2096200;28;20520;-70
2022/06/10 03:29:10;;;;;;;5.88;4.72;;;14.20;99.90;;;;;;2087511;28;20029;-70
2022/06/10 03:30:17;;;;;;;8.38;5.00;;;14.20;99.90;;;;;;2096529;28;20073;-70
2022/06/10 03:31:39;;;;;;;6.60;4.72;;;14.20;99.90;;;;;;2095057;28;20029;-70
2022/06/10 03:32:41;;;;;;;12.20;5.68;;;14.20;99.90;;;;;;2095839;28;20731;-70
2022/06/10 03:33:55;;;;;;;11.07;6.47;;;14.20;99.90;;;;;;2096319;28;20129;-70
2022/06/10 03:35:02;;;;;;;9.90;5.95;;;14.30;99.90;;;;;;2095981;28;20016;-70
2022/06/10 03:36:07;;;;;;;9.82;5.88;;;14.30;99.90;;;;;;2096505;28;20488;-70
2022/06/10 03:37:11;;;;;;;8.52;5.32;;;14.30;99.90;;;;;;2096451;28;20024;-70
2022/06/10 03:38:12;;;;;;;10.93;6.00;;;14.30;99.90;;;;;;2094715;28;20074;-70
2022/06/10 03:39:14;;;;;;;13.57;6.03;;;14.30;99.90;;;;;;2095143;28;20071;-70
2022/06/10 03:40:22;;;;;;;9.65;5.07;;;14.30;99.90;;;;;;2096222;28;20056;-70
2022/06/10 03:41:35;;;;;;;6.78;5.82;;;14.30;99.90;;;;;;2100262;28;20032;-70
2022/06/10 03:42:35;;;;;;;7.68;5.65;;;14.30;99.90;;;;;;2094818;28;20024;-70
2022/06/10 03:43:39;;;;;;;9.98;5.97;;;14.30;99.90;;;;;;2098249;28;20514;-70
2022/06/10 03:44:40;;;;;;;8.48;5.28;;;14.30;99.90;;;;;;2097195;28;20036;-70
2022/06/10 03:45:49;;;;;;;9.73;5.50;;;14.30;99.90;;;;;;2094593;28;20548;-70
2022/06/10 03:46:51;;;;;;;10.48;5.63;;;14.30;99.90;;;;;;2095532;28;20148;-70
2022/06/10 03:47:52;;;;;;;8.88;5.55;;;14.40;99.90;;;;;;2097077;28;20440;-70
2022/06/10 03:48:54;;;;;;;10.23;6.35;;;14.40;99.90;;;;;;2096079;28;20016;-70
2022/06/10 03:50:12;;;;;;;10.60;5.75;;;14.40;99.90;;;;;;2092247;28;20057;-70
2022/06/10 03:51:16;;;;;;;9.02;5.63;;;14.40;99.90;;;;;;2098286;28;20074;-70
2022/06/10 03:52:27;;;;;;;7.00;5.22;;;14.40;99.90;;;;;;2097519;28;20063;-70
2022/06/10 03:53:27;;;;;;;8.50;5.57;;;14.40;99.90;;;;;;2095279;28;20479;-70
2022/06/10 03:54:28;;;;;;;10.02;5.60;;;14.40;99.90;;;;;;2096478;28;20701;-70
2022/06/10 03:55:29;;;;;;;11.48;5.70;;;14.50;99.90;;;;;;2092425;28;20093;-70
2022/06/10 03:56:31;;;;;;;11.35;6.20;;;14.50;99.90;;;;;;2093304;28;20083;-70
2022/06/10 03:57:31;;;;;;;8.43;5.38;;;14.60;99.90;;;;;;2100066;28;20074;-70
2022/06/10 03:58:32;;;;;;;10.95;5.57;;;14.70;99.90;;;;;;2093068;28;20029;-70
2022/06/10 03:59:33;;;;;;;7.90;5.15;;;14.70;99.90;;;;;;2096197;28;20095;-70
2022/06/10 04:00:33;;;;;;;8.40;4.65;;;14.80;99.90;;;;;;2097498;28;20029;-70
2022/06/10 04:01:34;;;;;;;9.32;4.88;;;14.90;99.90;;;;;;2096043;28;20504;-70
2022/06/10 04:02:34;;;;;;;7.05;4.72;;;15.00;99.90;;;;;;2096833;28;20021;-70
2022/06/10 04:03:35;;;;;;;11.50;5.13;;;15.10;99.90;;;;;;2097846;28;20028;-70
2022/06/10 04:04:36;;;;;;;7.93;4.78;;;15.20;99.90;;;;;;2099263;28;20713;-70
2022/06/10 04:05:36;;;;;;;11.15;4.95;;;15.30;99.90;;;;;;2098951;28;20471;-70
2022/06/10 04:06:37;;;;;;;9.65;4.13;;;15.40;99.90;;;;;;2097615;28;20488;-70
2022/06/10 04:07:39;;;;;;;8.95;5.35;;;15.50;99.90;;;;;;2097285;28;20070;-70
2022/06/10 04:08:40;;;;;;;9.55;4.75;;;15.60;99.90;;;;;;2095445;28;20111;-70
2022/06/10 04:09:41;;;;;;;9.50;4.65;;;15.70;99.90;;;;;;2095641;28;20021;-70
2022/06/10 04:10:42;;;;;;;9.93;5.10;;;15.80;99.90;;;;;;2094847;28;20028;-70
2022/06/10 04:11:43;;;;;;;8.35;4.53;;;16.00;99.90;;;;;;2096989;28;20436;-70
2022/06/10 04:12:43;;;;;;;8.35;4.25;;;16.20;99.90;;;;;;2098625;28;20120;-70
2022/06/10 04:13:44;;;;;;;7.35;4.70;;;16.40;99.90;;;;;;2098697;28;20078;-70
2022/06/10 04:14:44;;;;;;;10.93;4.68;;;16.60;99.90;;;;;;2095323;28;20046;-70
2022/06/10 04:15:45;;;;;;;8.27;4.10;;;16.80;99.90;;;;;;2094879;28;20021;-70
2022/06/10 04:16:46;;;;;;;9.38;4.80;;;17.00;99.90;;;;;;2096643;28;20679;-70
2022/06/10 04:17:49;;;;;;;15.40;4.70;;;17.20;99.90;;;;;;2094354;28;20027;-70
2022/06/10 04:18:50;;;;;;;9.32;4.07;;;17.40;99.90;;;;;;2096843;28;20024;-70
2022/06/10 04:19:51;;;;;;;7.53;4.28;;;17.50;99.90;;;;;;2098789;28;20145;-70
2022/06/10 04:20:52;;;;;;;8.88;4.50;;;17.70;99.90;;;;;;2097187;28;20052;-70
2022/06/10 04:21:53;;;;;;;11.43;4.68;;;17.90;99.90;;;;;;2098151;28;20019;-70
2022/06/10 04:22:53;;;;;;;6.72;3.90;;;18.10;99.90;;;;;;2096255;28;20472;-70
2022/06/10 04:23:54;;;;;;;7.13;3.92;;;18.20;99.90;;;;;;2094670;28;20384;-70
2022/06/10 04:24:55;;;;;;;7.10;4.18;;;18.30;99.90;;;;;;2096502;28;20020;-70
2022/06/10 04:25:55;;;;;;;8.50;4.50;;;18.40;99.90;;;;;;2094860;28;20392;-70
2022/06/10 04:26:56;;;;;;;9.00;3.70;;;18.50;99.90;;;;;;2097965;28;20122;-70
2022/06/10 04:27:57;;;;;;;9.05;4.47;;;18.60;99.90;;;;;;2095687;28;20020;-70
2022/06/10 04:28:58;;;;;;;12.50;4.32;;;18.50;99.90;;;;;;2094108;28;20017;-70
2022/06/10 04:29:59;;;;;;;6.22;4.03;;;18.50;99.90;;;;;;2097728;28;20012;-70
2022/06/10 04:30:59;;;;;;;8.30;4.20;;;18.50;99.90;;;;;;2091888;28;20677;-70
2022/06/10 04:32:00;;;;;;;9.27;4.30;;;18.50;99.90;;;;;;2095132;28;20035;-70
2022/06/10 04:33:01;;;;;;;8.85;3.72;;;18.40;99.90;;;;;;2097389;28;20116;-70
2022/06/10 04:34:02;;;;;;;9.27;4.30;;;18.40;99.90;;;;;;2095075;28;20020;-70
2022/06/10 04:35:03;;;;;;;10.07;3.80;;;18.40;99.90;;;;;;2095616;28;20051;-70
2022/06/10 04:36:04;;;;;;;6.70;3.95;;;18.40;99.90;;;;;;2095359;28;20522;-70
2022/06/10 04:37:05;;;;;;;12.35;4.18;;;18.40;99.90;;;;;;2094738;28;20021;-70
2022/06/10 04:38:07;;;;;;;8.05;3.42;;;18.40;99.90;;;;;;2095490;28;20046;-70
2022/06/10 04:39:08;;;;;;;8.43;3.47;;;18.40;99.90;;;;;;2094875;28;20170;-70
2022/06/10 04:40:10;;;;;;;8.27;3.70;;;18.40;99.90;;;;;;2094374;28;20028;-70
2022/06/10 04:41:11;;;;;;;7.80;3.70;;;18.50;99.90;;;;;;2095706;28;20020;-70
2022/06/10 04:42:12;;;;;;;7.35;3.78;;;18.60;99.90;;;;;;2094521;28;20029;-70
2022/06/10 04:43:12;;;;;;;10.77;3.72;;;18.60;99.90;;;;;;2095497;28;20027;-70
2022/06/10 04:44:13;;;;;;;7.30;3.42;;;18.60;99.90;;;;;;2094032;28;20392;-70
2022/06/10 04:45:16;;;;;;;8.27;3.35;;;18.70;99.90;;;;;;2094167;28;20532;-70
2022/06/10 04:46:27;;;;;;;8.00;3.47;;;18.70;99.90;;;;;;2097726;28;20369;-70
2022/06/10 04:47:28;;;;;;;8.82;3.65;;;18.80;99.90;;;;;;2097741;28;20107;-70
2022/06/10 04:48:28;;;;;;;6.22;3.28;;;18.80;99.90;;;;;;2095273;28;20024;-70
2022/06/10 04:49:30;;;;;;;7.13;3.58;;;18.90;99.90;;;;;;2099066;28;20550;-70
2022/06/10 04:50:31;;;;;;;9.13;3.75;;;18.90;99.90;;;;;;2096976;28;20452;-70
2022/06/10 04:51:33;;;;;;;5.68;3.33;;;19.00;99.90;;;;;;2097444;28;20138;-70
2022/06/10 04:52:35;;;;;;;11.60;3.50;;;19.10;99.90;;;;;;2099125;28;20476;-70
2022/06/10 04:53:36;;;;;;;9.50;3.35;;;19.10;99.90;;;;;;2095300;28;20118;-70
2022/06/10 04:54:36;;;;;;;13.15;3.53;;;19.20;99.90;;;;;;2095776;28;20017;-70
2022/06/10 04:55:37;;;;;;;8.25;3.05;;;19.30;99.90;;;;;;2096453;28;20391;-70
2022/06/10 04:56:38;;;;;;;6.88;3.60;;;19.30;99.90;;;;;;2093889;28;20052;-70
2022/06/10 04:57:38;;;;;;;6.47;3.47;;;19.40;99.90;;;;;;2095631;28;20012;-70
2022/06/10 04:58:39;;;;;;;7.93;3.80;;;19.40;99.90;;;;;;2094992;28;20024;-70
2022/06/10 04:59:40;;;;;;;7.72;3.08;;;19.50;99.90;;;;;;2095270;28;20070;-70
2022/06/10 05:00:45;;;;;;;10.73;3.90;;;19.60;99.90;;;;;;2098226;28;20030;-70
2022/06/10 05:01:45;;;;;;;7.70;3.53;;;19.60;99.90;;;;;;2097054;28;20037;-70
2022/06/10 05:02:46;;;;;;;7.03;3.15;;;19.70;99.90;;;;;;2098945;28;20052;-70
2022/06/10 05:03:47;;;;;;;8.18;3.22;;;19.80;99.90;;;;;;2098619;28;20021;-70
2022/06/10 05:04:48;;;;;;;7.80;3.42;;;19.80;99.90;;;;;;2096924;28;20032;-70
2022/06/10 05:05:49;;;;;;;11.35;3.50;;;19.90;99.90;;;;;;2096557;28;20484;-70
2022/06/10 05:06:49;;;;;;;7.97;2.60;;;20.00;99.90;;;;;;2099389;28;20020;-70
2022/06/10 05:07:50;;;;;;;9.85;3.08;;;20.00;99.90;;;;;;2096978;28;20395;-70
2022/06/10 05:08:51;;;;;;;9.48;3.13;;;20.10;99.90;;;;;;2096812;28;20578;-70
2022/06/10 05:09:51;;;;;;;6.22;2.63;;;20.10;99.90;;;;;;2097421;28;20495;-70
2022/06/10 05:10:52;;;;;;;5.47;2.42;;;20.20;99.90;;;;;;2097016;28;20353;-70
2022/06/10 05:11:53;;;;;;;7.80;3.30;;;20.30;99.90;;;;;;2098594;28;20035;-70
2022/06/10 05:12:53;;;;;;;11.15;3.28;;;20.30;99.90;;;;;;2096727;28;20445;-70
2022/06/10 05:13:54;;;;;;;8.13;3.05;;;20.40;99.90;;;;;;2096730;28;20499;-70
2022/06/10 05:14:54;;;;;;;9.13;3.45;;;20.50;99.90;;;;;;2098189;28;20107;-70
2022/06/10 05:15:55;;;;;;;7.43;3.10;;;20.50;99.90;;;;;;2096226;28;20020;-70
2022/06/10 05:16:56;;;;;;;7.60;3.00;;;20.60;99.90;;;;;;2100325;28;20497;-70
2022/06/10 05:17:58;;;;;;;6.20;2.70;;;20.60;99.90;;;;;;2097999;28;20019;-70
2022/06/10 05:18:58;;;;;;;7.63;3.47;;;20.70;99.90;;;;;;2098218;28;20087;-70
2022/06/10 05:19:59;;;;;;;9.55;2.90;;;20.80;99.90;;;;;;2097640;28;20028;-71
2022/06/10 05:21:00;;;;;;;6.72;3.20;;;20.80;99.90;;;;;;2096948;28;20059;-70
2022/06/10 05:22:01;;;;;;;7.65;3.00;;;20.90;99.90;;;;;;2095804;28;20031;-70
2022/06/10 05:23:02;;;;;;;11.65;3.10;;;21.00;99.90;;;;;;2096598;28;20021;-70
2022/06/10 05:24:03;;;;;;;9.70;3.20;;;21.00;99.90;;;;;;2096442;28;20032;-70
2022/06/10 05:25:05;;;;;;;7.88;3.00;;;21.10;99.90;;;;;;2100555;28;20056;-70
2022/06/10 05:26:05;;;;;;;6.05;2.47;;;21.10;99.90;;;;;;2094901;28;20559;-70
2022/06/10 05:27:07;;;;;;;11.98;3.75;;;21.20;99.90;;;;;;2098725;28;20047;-70
2022/06/10 05:28:09;;;;;;;7.93;2.70;;;21.20;99.90;;;;;;2098471;28;20032;-70
2022/06/10 05:29:10;;;;;;;11.05;2.75;;;21.30;99.90;;;;;;2095188;28;20037;-70
2022/06/10 05:30:17;;;;;;;9.20;2.92;;;21.40;99.90;;;;;;2097289;28;20144;-71
2022/06/10 05:31:18;;;;;;;7.10;2.72;;;21.40;99.90;;;;;;2097381;28;20033;-71
2022/06/10 05:32:19;;;;;;;7.30;3.03;;;21.50;99.90;;;;;;2094493;28;20478;-71
2022/06/10 05:33:19;;;;;;;7.97;2.83;;;21.60;99.90;;;;;;2099114;28;20036;-71
2022/06/10 05:35:40;;;;;;;11.18;2.90;;;21.70;99.90;;;;;;2096347;28;20028;-70
2022/06/10 05:36:41;;;;;;;5.85;2.53;;;21.80;99.90;;;;;;2096348;28;20032;-70
2022/06/10 05:37:42;;;;;;;8.80;2.40;;;21.90;99.50;;;;;;2097489;28;20017;-70
2022/06/10 05:38:42;;;;;;;6.88;3.00;;;21.90;98.40;;;;;;2096204;28;20050;-70
2022/06/10 05:39:43;;;;;;;8.18;2.60;;;22.00;98.60;;;;;;2098399;28;20100;-70
2022/06/10 05:40:44;;;;;;;6.90;2.67;;;22.00;97.80;;;;;;2097995;28;20031;-70
2022/06/10 05:43:04;;;;;;;10.05;3.10;;;22.10;96.90;;;;;;2097084;28;20028;-70
2022/06/10 05:44:06;;;;;;;6.45;2.55;;;22.20;96.50;;;;;;2097844;28;20025;-70
2022/06/10 05:45:07;;;;;;;8.48;3.20;;;22.30;96.10;;;;;;2094192;28;20024;-70
2022/06/10 05:46:08;;;;;;;9.55;2.47;;;22.40;96.10;;;;;;2094561;28;20016;-70
2022/06/10 05:47:12;;;;;;;10.40;3.30;;;22.40;94.70;;;;;;2096033;28;20021;-70
2022/06/10 05:48:12;;;;;;;8.55;2.40;;;22.40;93.60;;;;;;2098199;28;20392;-70
2022/06/10 05:49:13;;;;;;;9.10;2.75;;;22.50;92.60;;;;;;2098385;28;20032;-70
2022/06/10 05:50:29;;;;;;;10.77;3.10;;;22.40;92.90;;;;;;2095522;28;20115;-70
2022/06/10 05:51:30;;;;;;;7.35;2.75;;;22.50;91.00;;;;;;2095636;28;20042;-70
2022/06/10 05:52:31;;;;;;;6.10;2.70;;;22.50;92.60;;;;;;2097680;28;20039;-70
2022/06/10 05:53:32;;;;;;;4.07;2.50;;;22.50;92.80;;;;;;2096653;28;20021;-70
2022/06/10 05:54:34;;;;;;;8.40;2.90;;;22.50;92.20;;;;;;2093108;28;20517;-70
2022/06/10 05:55:36;;;;;;;8.15;3.00;;;22.50;91.80;;;;;;2096641;28;20037;-70
2022/06/10 05:56:37;;;;;;;11.50;3.00;;;22.50;91.00;;;;;;2097630;28;20016;-70